Time;durP1;ratioP1;P1;durP2;ratioP2;P2;SDS_P1;SDS_P2;PMS_P1;PMS_P2;Temp;Humidity;BMP_temperature;BMP_pressure;BME280_temperature;BME280_humidity;BME280_pressure;Samples;Min_cycle;Max_cycle;Signal;HPM_P1;HPM_P2
2024/04/23 00:01:55;;;;;;;2.30;0.50;;;4.90;99.90;;;;;;5528240;26;20441;-74
2024/04/23 00:04:23;;;;;;;0.80;0.40;;;4.80;99.90;;;;;;5529204;25;20441;-73
2024/04/23 00:07:01;;;;;;;0.70;0.40;;;4.90;99.90;;;;;;5562354;25;20516;-73
2024/04/23 00:09:29;;;;;;;1.10;0.47;;;5.00;99.90;;;;;;5566723;25;20451;-72
2024/04/23 00:11:58;;;;;;;0.70;0.30;;;5.00;99.90;;;;;;5567190;25;20455;-72
2024/04/23 00:14:24;;;;;;;0.60;0.40;;;4.90;99.90;;;;;;5567012;25;20423;-73
2024/04/23 00:17:03;;;;;;;1.60;0.50;;;4.90;99.90;;;;;;5566692;25;20455;-73
2024/04/23 00:19:29;;;;;;;0.83;0.50;;;5.00;99.90;;;;;;5566906;25;20455;-73
2024/04/23 00:22:04;;;;;;;0.97;0.43;;;5.00;99.90;;;;;;5566789;25;20466;-72
2024/04/23 00:24:30;;;;;;;1.17;0.50;;;4.90;99.90;;;;;;5566801;25;20462;-71
2024/04/23 00:27:01;;;;;;;1.50;0.50;;;4.90;99.90;;;;;;5566034;25;20459;-73
2024/04/23 00:29:30;;;;;;;1.60;0.40;;;4.60;99.90;;;;;;5566867;25;20459;-72
2024/04/23 00:31:59;;;;;;;1.33;0.50;;;4.50;99.90;;;;;;5566608;25;20441;-72
2024/04/23 00:34:25;;;;;;;1.00;0.33;;;4.60;99.90;;;;;;5566688;25;20491;-71
2024/04/23 00:36:55;;;;;;;0.80;0.40;;;4.60;99.90;;;;;;5566065;25;20459;-71
2024/04/23 00:39:25;;;;;;;0.67;0.43;;;4.60;99.90;;;;;;5566576;25;20443;-72
2024/04/23 00:41:55;;;;;;;1.90;0.60;;;4.60;99.90;;;;;;5567113;25;20897;-73
2024/04/23 00:44:21;;;;;;;0.77;0.50;;;4.70;99.90;;;;;;5566219;25;20877;-72
2024/04/23 00:46:50;;;;;;;0.73;0.37;;;4.50;99.90;;;;;;5566376;25;20930;-73
2024/04/23 00:49:17;;;;;;;0.73;0.40;;;4.40;99.90;;;;;;5566702;25;20508;-71
2024/04/23 00:51:50;;;;;;;0.60;0.40;;;4.50;99.90;;;;;;5565986;25;21014;-72
2024/04/23 00:54:17;;;;;;;2.20;0.53;;;4.40;99.90;;;;;;5565982;25;20459;-73
2024/04/23 00:56:48;;;;;;;1.20;0.47;;;4.30;99.90;;;;;;5557715;25;20435;-73
2024/04/23 00:59:17;;;;;;;0.47;0.30;;;4.20;99.90;;;;;;5526301;25;20523;-72
2024/04/23 01:01:46;;;;;;;1.00;0.30;;;4.20;99.90;;;;;;5529269;26;20464;-73
2024/04/23 01:04:12;;;;;;;1.00;0.60;;;4.30;99.90;;;;;;5528689;26;20480;-73
2024/04/23 01:06:42;;;;;;;0.70;0.40;;;4.30;99.90;;;;;;5528162;26;20527;-72
2024/04/23 01:09:09;;;;;;;1.83;0.43;;;4.30;99.90;;;;;;5528902;26;20588;-72
2024/04/23 01:11:38;;;;;;;3.57;0.50;;;4.40;99.90;;;;;;5527997;26;20452;-72
2024/04/23 01:14:07;;;;;;;1.30;0.50;;;4.30;99.90;;;;;;5528596;26;20432;-72
2024/04/23 01:16:40;;;;;;;0.80;0.50;;;4.20;99.90;;;;;;5528005;26;20521;-72
2024/04/23 01:19:15;;;;;;;2.10;0.60;;;4.10;99.90;;;;;;5526905;26;20570;-72
2024/04/23 01:21:58;;;;;;;0.60;0.40;;;4.00;99.90;;;;;;5527745;26;20460;-72
2024/04/23 01:24:32;;;;;;;0.90;0.50;;;4.10;99.90;;;;;;5528003;25;20853;-72
2024/04/23 01:27:04;;;;;;;0.80;0.43;;;4.30;99.90;;;;;;5527203;26;21003;-72
2024/04/23 01:29:31;;;;;;;1.10;0.50;;;4.40;99.90;;;;;;5527440;26;20495;-71
2024/04/23 01:32:02;;;;;;;1.00;0.40;;;4.50;99.90;;;;;;5526161;26;20468;-72
2024/04/23 01:34:31;;;;;;;2.20;0.50;;;4.50;99.90;;;;;;5526300;26;20472;-71
2024/04/23 01:37:02;;;;;;;0.87;0.60;;;4.30;99.90;;;;;;5526496;26;20452;-71
2024/04/23 01:39:30;;;;;;;0.60;0.50;;;4.30;99.90;;;;;;5525655;26;20464;-71
2024/04/23 01:42:00;;;;;;;1.50;0.43;;;4.20;99.90;;;;;;5527780;26;20708;-72
2024/04/23 01:44:29;;;;;;;2.27;0.50;;;4.10;99.90;;;;;;5528354;26;20441;-71
2024/04/23 01:46:59;;;;;;;0.57;0.40;;;4.10;99.90;;;;;;5529760;26;20723;-71
2024/04/23 01:49:25;;;;;;;0.70;0.37;;;4.00;99.90;;;;;;5532201;26;20504;-71
2024/04/23 01:51:57;;;;;;;0.93;0.40;;;4.00;99.90;;;;;;5532284;26;20460;-71
2024/04/23 01:54:23;;;;;;;0.70;0.50;;;4.00;99.90;;;;;;5532264;26;20509;-72
2024/04/23 01:56:52;;;;;;;0.80;0.40;;;4.20;99.90;;;;;;5531063;26;20436;-72
2024/04/23 01:59:19;;;;;;;0.63;0.40;;;4.00;99.90;;;;;;5531745;25;20476;-73
2024/04/23 02:01:55;;;;;;;0.60;0.30;;;3.80;99.90;;;;;;5531498;26;20506;-73
2024/04/23 02:04:24;;;;;;;1.10;0.50;;;3.50;99.90;;;;;;5539464;25;20708;-71
2024/04/23 02:06:54;;;;;;;0.90;0.43;;;3.50;1.00;;;;;;5539436;25;20488;-72
2024/04/23 02:09:21;;;;;;;1.40;0.60;;;3.40;1.00;;;;;;5532608;25;20425;-74
2024/04/23 02:11:56;;;;;;;0.70;0.60;;;3.40;1.00;;;;;;5564044;25;20517;-72
2024/04/23 02:14:22;;;;;;;0.93;0.50;;;3.30;1.00;;;;;;5530950;25;20501;-72
2024/04/23 02:16:54;;;;;;;1.40;0.40;;;3.50;1.00;;;;;;5530870;25;20464;-71
2024/04/23 02:19:20;;;;;;;1.43;0.60;;;3.50;1.00;;;;;;5531320;25;20926;-72
2024/04/23 02:21:48;;;;;;;1.17;0.60;;;3.50;1.00;;;;;;5530984;25;20507;-72
2024/04/23 02:24:14;;;;;;;0.70;0.50;;;3.50;99.90;;;;;;5545187;25;21510;-71
2024/04/23 02:26:43;;;;;;;1.23;0.67;;;3.60;99.90;;;;;;5543142;25;20933;-72
2024/04/23 02:29:09;;;;;;;1.10;0.50;;;3.60;99.90;;;;;;5530202;25;20515;-73
2024/04/23 02:31:38;;;;;;;4.13;0.57;;;3.70;99.90;;;;;;5567737;25;20439;-72
2024/04/23 02:34:06;;;;;;;1.00;0.60;;;3.70;99.90;;;;;;5533592;25;20595;-71
2024/04/23 02:36:37;;;;;;;1.10;0.50;;;3.60;99.90;;;;;;5531080;25;20866;-72
2024/04/23 02:39:06;;;;;;;1.40;0.50;;;3.60;99.90;;;;;;5529886;25;20425;-71
2024/04/23 02:41:36;;;;;;;2.40;0.57;;;3.60;99.90;;;;;;5529502;26;20500;-71
2024/04/23 02:44:03;;;;;;;2.37;0.60;;;3.50;99.90;;;;;;5529409;26;20503;-71
2024/04/23 02:46:32;;;;;;;1.20;0.70;;;3.60;99.90;;;;;;5529308;26;20564;-72
2024/04/23 02:48:58;;;;;;;1.13;0.40;;;3.50;99.90;;;;;;5529543;26;20722;-72
2024/04/23 02:51:29;;;;;;;1.10;0.70;;;3.50;99.90;;;;;;5530559;26;20425;-73
2024/04/23 02:53:56;;;;;;;2.90;0.57;;;3.60;99.90;;;;;;5531238;26;20433;-72
2024/04/23 02:56:28;;;;;;;1.87;0.67;;;3.80;99.90;;;;;;5531528;26;20421;-72
2024/04/23 02:58:54;;;;;;;2.70;1.13;;;3.70;99.90;;;;;;5552966;25;20522;-73
2024/04/23 03:01:22;;;;;;;2.30;0.70;;;3.70;99.90;;;;;;5565043;25;20458;-71
2024/04/23 03:03:48;;;;;;;1.57;0.60;;;3.60;99.90;;;;;;5531041;25;20511;-71
2024/04/23 03:06:17;;;;;;;2.70;0.60;;;3.50;99.90;;;;;;5531413;25;20577;-72
2024/04/23 03:08:46;;;;;;;0.50;0.43;;;3.40;99.90;;;;;;5530954;25;20761;-72
2024/04/23 03:11:14;;;;;;;2.40;0.60;;;3.50;99.90;;;;;;5531152;25;20441;-71
2024/04/23 03:13:40;;;;;;;1.23;0.50;;;3.60;99.90;;;;;;5529945;25;20917;-72
2024/04/23 03:16:09;;;;;;;1.40;0.43;;;3.70;99.90;;;;;;5531785;25;20469;-72
2024/04/23 03:18:35;;;;;;;1.70;0.80;;;3.60;99.90;;;;;;5531643;25;20572;-72
2024/04/23 03:21:04;;;;;;;1.40;0.50;;;3.70;99.90;;;;;;5531906;25;21135;-72
2024/04/23 03:23:30;;;;;;;0.80;0.50;;;3.80;99.90;;;;;;5531556;25;20546;-72
2024/04/23 03:26:01;;;;;;;1.77;0.70;;;3.50;99.90;;;;;;5530799;25;20449;-71
2024/04/23 03:28:27;;;;;;;0.90;0.40;;;3.60;99.90;;;;;;5540997;25;20459;-73
2024/04/23 03:30:56;;;;;;;1.30;0.63;;;3.40;99.90;;;;;;5520025;25;20529;-71
2024/04/23 03:33:22;;;;;;;0.90;0.57;;;3.20;99.90;;;;;;5516370;25;20456;-72
2024/04/23 03:35:51;;;;;;;2.40;0.53;;;3.30;99.90;;;;;;5512936;25;20564;-73
2024/04/23 03:38:21;;;;;;;0.90;0.50;;;3.10;99.90;;;;;;5523668;25;20440;-70
2024/04/23 03:40:50;;;;;;;0.90;0.57;;;2.80;99.90;;;;;;5517992;25;20497;-71
2024/04/23 03:43:21;;;;;;;0.77;0.53;;;2.60;1.00;;;;;;5504637;25;21001;-73
2024/04/23 03:45:50;;;;;;;1.47;0.60;;;2.40;1.00;;;;;;5529410;25;20441;-72
2024/04/23 03:48:20;;;;;;;1.37;0.50;;;2.40;1.00;;;;;;5530309;25;20444;-72
2024/04/23 03:50:46;;;;;;;1.87;0.50;;;2.50;1.00;;;;;;5525878;25;20437;-72
2024/04/23 03:53:15;;;;;;;0.70;0.50;;;2.70;1.00;;;;;;5528454;25;20514;-72
2024/04/23 03:55:40;;;;;;;1.00;0.67;;;2.90;1.00;;;;;;5511927;25;20476;-73
2024/04/23 03:58:09;;;;;;;1.50;0.80;;;2.80;1.00;;;;;;5528655;25;20493;-72
2024/04/23 04:00:38;;;;;;;1.00;0.80;;;2.90;1.00;;;;;;5506534;26;20513;-72
2024/04/23 04:06:07;;;;;;;2.00;0.73;;;3.00;99.90;;;;;;5494905;26;20481;-72
2024/04/23 04:08:38;;;;;;;2.43;0.60;;;3.50;1.00;;;;;;5493035;26;20506;-73
2024/04/23 04:11:09;;;;;;;1.40;0.60;;;3.70;99.90;;;;;;5525941;26;20449;-72
2024/04/23 04:13:40;;;;;;;0.73;0.50;;;3.70;99.90;;;;;;5526760;26;20493;-73
2024/04/23 04:16:12;;;;;;;1.10;0.60;;;3.70;99.90;;;;;;5495652;26;20526;-72
2024/04/23 04:18:38;;;;;;;2.20;0.70;;;3.50;99.90;;;;;;5496264;26;20551;-72
2024/04/23 04:21:07;;;;;;;1.47;0.50;;;3.20;99.90;;;;;;5492636;26;20446;-72
2024/04/23 04:23:33;;;;;;;3.67;0.80;;;3.10;99.90;;;;;;5510609;26;20754;-71
2024/04/23 04:26:02;;;;;;;1.70;0.70;;;3.00;99.90;;;;;;5525612;26;20436;-72
2024/04/23 04:28:30;;;;;;;3.43;0.70;;;3.00;99.90;;;;;;5515393;26;20454;-71
2024/04/23 04:30:59;;;;;;;1.30;0.67;;;2.90;99.90;;;;;;5489707;26;20430;-72
2024/04/23 04:33:28;;;;;;;0.80;0.60;;;2.80;99.90;;;;;;5507128;26;20513;-71
2024/04/23 04:35:56;;;;;;;1.87;0.50;;;2.70;99.90;;;;;;5505139;26;20484;-72
2024/04/23 04:38:22;;;;;;;1.87;0.70;;;2.60;99.90;;;;;;5517830;26;20453;-73
2024/04/23 04:40:52;;;;;;;1.23;0.40;;;2.60;1.00;;;;;;5523193;26;20452;-73
2024/04/23 04:43:18;;;;;;;2.30;0.57;;;2.60;1.00;;;;;;5490049;26;20915;-73
2024/04/23 04:45:47;;;;;;;1.10;0.30;;;2.60;99.90;;;;;;5490118;26;20514;-71
2024/04/23 04:48:13;;;;;;;1.63;0.60;;;2.50;99.90;;;;;;5500323;26;20486;-73
2024/04/23 04:50:44;;;;;;;0.87;0.60;;;2.30;1.00;;;;;;5524376;26;20452;-73
2024/04/23 04:53:10;;;;;;;1.50;0.80;;;2.50;1.00;;;;;;5522873;26;20559;-73
2024/04/23 04:55:39;;;;;;;1.70;0.70;;;3.30;1.00;;;;;;5523213;26;20456;-73
2024/04/23 04:58:05;;;;;;;1.43;0.60;;;3.20;99.90;;;;;;5523383;25;20655;-73
2024/04/23 05:00:34;;;;;;;1.30;0.70;;;3.30;99.90;;;;;;5524450;26;20472;-72
2024/04/23 05:03:00;;;;;;;0.73;0.50;;;3.50;99.90;;;;;;5524121;26;20441;-73
2024/04/23 05:05:29;;;;;;;2.50;0.63;;;3.70;99.90;;;;;;5522307;26;20437;-74
2024/04/23 05:07:57;;;;;;;2.00;1.00;;;3.50;99.90;;;;;;5503358;26;20519;-73
2024/04/23 05:10:29;;;;;;;0.87;0.47;;;3.40;99.90;;;;;;5526408;26;20460;-73
2024/04/23 05:12:55;;;;;;;2.37;0.60;;;3.30;99.90;;;;;;5527178;26;20433;-73
2024/04/23 05:15:24;;;;;;;2.07;0.70;;;3.20;99.90;;;;;;5527041;26;20578;-74
2024/04/23 05:17:50;;;;;;;0.93;0.53;;;3.30;99.90;;;;;;5528555;26;20937;-74
2024/04/23 05:20:19;;;;;;;1.67;0.80;;;3.30;99.90;;;;;;5525886;26;20445;-74
2024/04/23 05:22:45;;;;;;;1.33;0.70;;;3.40;99.90;;;;;;5519496;26;20495;-74
2024/04/23 05:25:17;;;;;;;0.90;0.50;;;3.40;99.90;;;;;;5528020;26;20516;-76
2024/04/23 05:27:43;;;;;;;1.53;0.60;;;3.30;99.90;;;;;;5528524;26;20468;-76
2024/04/23 05:32:46;;;;;;;1.03;0.60;;;3.30;99.90;;;;;;5528034;26;20437;-76
2024/04/23 05:33:02;;;;;;;1.07;0.50;;;3.30;99.90;;;;;;5526371;26;20511;-76
2024/04/23 05:35:31;;;;;;;0.80;0.40;;;3.30;99.90;;;;;;5526449;26;20452;-76
2024/04/23 05:38:00;;;;;;;1.13;0.60;;;3.20;99.90;;;;;;5525438;26;20458;-75
2024/04/23 05:40:31;;;;;;;6.93;0.70;;;3.20;99.90;;;;;;5530570;26;20523;-74
2024/04/23 05:43:01;;;;;;;1.87;0.60;;;3.30;99.90;;;;;;5530128;26;20552;-74
2024/04/23 05:45:29;;;;;;;2.00;0.67;;;3.30;99.90;;;;;;5527725;26;20550;-74
2024/04/23 05:48:33;;;;;;;3.67;0.70;;;3.30;99.90;;;;;;5507861;26;20499;-75
2024/04/23 05:51:39;;;;;;;1.40;0.60;;;3.30;99.90;;;;;;5490487;26;20948;-75
2024/04/23 05:54:45;;;;;;;0.87;0.60;;;3.30;99.90;;;;;;5489608;26;20430;-75
2024/04/23 05:57:14;;;;;;;1.07;0.47;;;3.30;99.90;;;;;;5490021;26;20483;-75
2024/04/23 05:59:42;;;;;;;2.50;2.00;;;3.40;99.90;;;;;;5492950;26;20422;-76
2024/04/23 06:02:11;;;;;;;0.90;0.60;;;3.30;99.90;;;;;;5498256;26;20458;-76
2024/04/23 06:04:40;;;;;;;0.90;0.50;;;3.30;99.90;;;;;;5530054;26;20515;-76
2024/04/23 06:07:09;;;;;;;1.10;0.50;;;3.40;99.90;;;;;;5520896;26;21026;-76
2024/04/23 06:09:38;;;;;;;1.10;0.50;;;3.40;99.90;;;;;;5529908;26;20448;-76
2024/04/23 06:12:07;;;;;;;1.40;0.50;;;3.40;99.90;;;;;;5511606;26;20986;-76
2024/04/23 06:14:43;;;;;;;1.17;0.47;;;3.40;99.90;;;;;;5517463;26;20478;-76
2024/04/23 06:17:22;;;;;;;4.30;1.00;;;3.50;99.90;;;;;;5530088;26;20524;-76
2024/04/23 06:19:51;;;;;;;1.93;0.50;;;3.70;99.90;;;;;;5527228;26;20440;-76
2024/04/23 06:22:21;;;;;;;1.47;0.60;;;3.60;99.90;;;;;;5505483;26;20469;-75
2024/04/23 06:24:50;;;;;;;1.30;0.80;;;3.70;99.90;;;;;;5493796;26;20931;-75
2024/04/23 06:27:20;;;;;;;1.20;0.50;;;3.70;99.90;;;;;;5508409;26;20829;-76
2024/04/23 06:29:52;;;;;;;0.93;0.50;;;3.80;99.90;;;;;;5537569;25;20441;-76
2024/04/23 06:32:26;;;;;;;1.47;0.43;;;4.10;99.90;;;;;;5533571;26;20433;-77
2024/04/23 06:34:52;;;;;;;9.20;1.07;;;4.30;99.90;;;;;;5529691;26;20472;-77
2024/04/23 06:37:21;;;;;;;0.97;0.87;;;4.70;1.00;;;;;;5490784;26;20470;-76
2024/04/23 06:39:47;;;;;;;1.17;0.70;;;4.90;99.90;;;;;;5513174;26;20942;-76
2024/04/23 06:42:16;;;;;;;1.30;0.90;;;4.60;99.90;;;;;;5515294;26;21264;-76
2024/04/23 06:44:42;;;;;;;1.43;0.57;;;4.80;99.90;;;;;;5520400;26;20444;-75
2024/04/23 06:47:17;;;;;;;2.00;0.70;;;5.10;99.90;;;;;;5488188;26;20473;-75
2024/04/23 06:49:46;;;;;;;1.83;0.70;;;5.10;99.90;;;;;;5509376;26;20576;-75
2024/04/23 06:52:14;;;;;;;0.80;0.50;;;4.60;99.90;;;;;;5523417;26;20559;-75
2024/04/23 06:54:45;;;;;;;1.43;0.67;;;4.60;99.90;;;;;;5521151;26;20464;-75
2024/04/23 06:57:15;;;;;;;1.53;0.70;;;4.90;99.90;;;;;;5486416;26;20496;-75
2024/04/23 06:59:44;;;;;;;2.70;1.37;;;5.10;99.90;;;;;;5507073;26;20456;-75
2024/04/23 07:02:24;;;;;;;2.13;0.60;;;5.40;99.90;;;;;;5522576;26;20561;-75
2024/04/23 07:04:53;;;;;;;1.73;0.77;;;5.50;99.90;;;;;;5509075;26;20801;-73
2024/04/23 07:07:26;;;;;;;2.17;0.70;;;5.50;99.90;;;;;;5523146;26;20445;-74
2024/04/23 07:09:52;;;;;;;1.13;0.47;;;5.50;99.90;;;;;;5524083;26;22094;-76
2024/04/23 07:12:21;;;;;;;1.40;0.70;;;5.10;99.90;;;;;;5519479;26;20952;-75
2024/04/23 07:14:48;;;;;;;1.50;0.83;;;5.20;99.90;;;;;;5524204;26;20720;-73
2024/04/23 07:17:19;;;;;;;1.50;0.63;;;5.50;99.90;;;;;;5524629;26;20461;-73
2024/04/23 07:19:45;;;;;;;1.70;0.80;;;5.50;99.90;;;;;;5522090;26;20457;-73
2024/04/23 07:22:22;;;;;;;0.60;0.50;;;5.80;99.90;;;;;;5521876;26;20522;-73
2024/04/23 07:24:48;;;;;;;1.63;0.60;;;5.60;99.90;;;;;;5521686;26;20484;-73
2024/04/23 07:27:21;;;;;;;1.93;0.70;;;5.80;99.90;;;;;;5527468;26;20468;-74
2024/04/23 07:29:47;;;;;;;1.70;0.60;;;5.60;99.90;;;;;;5525550;26;20456;-74
2024/04/23 07:32:18;;;;;;;3.63;0.80;;;5.80;99.90;;;;;;5520374;26;20453;-73
2024/04/23 07:34:44;;;;;;;1.53;0.77;;;5.80;99.90;;;;;;5519937;26;20569;-72
2024/04/23 07:37:14;;;;;;;1.30;0.73;;;6.00;99.90;;;;;;5522838;26;20484;-72
2024/04/23 07:39:40;;;;;;;1.63;0.77;;;6.00;99.90;;;;;;5524015;26;20942;-74
2024/04/23 07:42:09;;;;;;;1.10;0.50;;;6.00;99.90;;;;;;5523047;26;20452;-74
2024/04/23 07:44:38;;;;;;;2.27;0.67;;;6.40;99.90;;;;;;5519848;26;20445;-73
2024/04/23 07:47:06;;;;;;;0.77;0.50;;;6.30;99.90;;;;;;5523569;26;20508;-73
2024/04/23 07:49:51;;;;;;;1.40;0.53;;;6.90;99.90;;;;;;5522420;26;20480;-73
2024/04/23 07:52:19;;;;;;;1.40;0.70;;;7.00;99.90;;;;;;5520014;26;20476;-73
2024/04/23 07:54:51;;;;;;;1.23;0.70;;;6.80;99.90;;;;;;5521358;26;20729;-73
2024/04/23 07:57:22;;;;;;;3.10;0.70;;;6.60;99.90;;;;;;5522287;26;20464;-73
2024/04/23 07:59:52;;;;;;;1.20;0.67;;;6.20;99.90;;;;;;5558346;25;20466;-74
2024/04/23 08:02:20;;;;;;;1.07;0.70;;;6.20;99.90;;;;;;5560331;25;20447;-75
2024/04/23 08:05:06;;;;;;;1.40;0.57;;;6.40;99.90;;;;;;5560990;25;20566;-75
2024/04/23 08:07:32;;;;;;;1.70;0.60;;;6.50;99.90;;;;;;5534759;25;20914;-74
2024/04/23 08:10:17;;;;;;;2.13;0.70;;;6.60;99.90;;;;;;5486749;26;20576;-74
2024/04/23 08:12:44;;;;;;;1.10;0.73;;;6.50;99.90;;;;;;5502116;26;20524;-72
2024/04/23 08:15:13;;;;;;;1.30;0.80;;;6.50;99.90;;;;;;5518482;26;20500;-72
2024/04/23 08:17:42;;;;;;;1.13;0.60;;;6.50;99.90;;;;;;5518182;25;20493;-73
2024/04/23 08:20:18;;;;;;;1.03;0.60;;;6.50;99.90;;;;;;5497875;25;20480;-73
2024/04/23 08:22:49;;;;;;;1.03;0.70;;;6.60;99.90;;;;;;5508753;26;20524;-74
2024/04/23 08:25:17;;;;;;;0.80;0.60;;;6.50;99.90;;;;;;5499184;25;20752;-73
2024/04/23 08:27:47;;;;;;;2.60;0.60;;;6.70;99.90;;;;;;5515046;25;20468;-73
2024/04/23 08:30:19;;;;;;;1.20;0.60;;;6.80;99.90;;;;;;5496089;25;20526;-73
2024/04/23 08:32:53;;;;;;;1.87;0.73;;;7.00;99.90;;;;;;5507308;26;20517;-73
2024/04/23 08:35:30;;;;;;;1.60;0.50;;;7.20;99.90;;;;;;5512670;26;20449;-73
2024/04/23 08:37:57;;;;;;;0.97;0.67;;;7.20;99.90;;;;;;5512506;25;20961;-73
2024/04/23 08:40:29;;;;;;;2.30;0.60;;;7.00;99.90;;;;;;5514472;26;21036;-75
2024/04/23 08:43:09;;;;;;;2.07;1.00;;;7.00;99.90;;;;;;5526862;26;20966;-75
2024/04/23 08:45:44;;;;;;;0.70;0.50;;;7.20;99.90;;;;;;5494276;26;21051;-76
2024/04/23 08:48:28;;;;;;;1.87;1.00;;;7.40;99.90;;;;;;5495240;26;20453;-75
2024/04/23 08:51:07;;;;;;;1.10;0.50;;;7.40;99.90;;;;;;5496721;26;20469;-75
2024/04/23 08:53:42;;;;;;;1.60;0.80;;;7.50;99.90;;;;;;5491749;26;20466;-75
2024/04/23 08:56:16;;;;;;;1.10;0.60;;;7.50;99.90;;;;;;5498308;26;20543;-75
2024/04/23 08:58:46;;;;;;;2.10;0.70;;;7.60;99.90;;;;;;5499219;26;20549;-75
2024/04/23 09:01:16;;;;;;;1.20;0.70;;;7.70;99.90;;;;;;5519870;26;20484;-75
2024/04/23 09:03:49;;;;;;;1.30;0.70;;;7.80;99.90;;;;;;5507261;26;20491;-74
2024/04/23 09:06:26;;;;;;;1.17;0.70;;;8.00;99.90;;;;;;5526010;26;20456;-75
2024/04/23 09:09:01;;;;;;;0.90;0.50;;;8.20;99.90;;;;;;5525298;26;20512;-77
2024/04/23 09:11:27;;;;;;;2.50;0.67;;;8.30;99.90;;;;;;5520407;26;20456;-76
2024/04/23 09:13:57;;;;;;;1.60;0.60;;;8.40;99.90;;;;;;5522890;26;20515;-76
2024/04/23 09:16:23;;;;;;;1.10;0.70;;;8.30;99.90;;;;;;5524069;26;20436;-76
2024/04/23 09:18:53;;;;;;;1.60;0.70;;;8.30;99.90;;;;;;5527115;26;21051;-75
2024/04/23 09:21:25;;;;;;;1.00;0.70;;;8.50;99.90;;;;;;5526404;26;20518;-76
2024/04/23 09:23:54;;;;;;;2.20;0.60;;;8.40;99.90;;;;;;5526577;26;20464;-76
2024/04/23 09:26:24;;;;;;;2.40;0.90;;;8.60;99.90;;;;;;5527862;26;20542;-74
2024/04/23 09:28:54;;;;;;;2.80;1.10;;;8.80;99.90;;;;;;5526497;26;20809;-75
2024/04/23 09:31:20;;;;;;;1.53;0.77;;;8.90;99.90;;;;;;5525237;25;20319;-75
2024/04/23 09:33:59;;;;;;;1.00;0.60;;;8.70;99.90;;;;;;5492342;26;20505;-76
2024/04/23 09:36:32;;;;;;;1.93;0.80;;;8.80;99.90;;;;;;5516149;26;20448;-75
2024/04/23 09:39:16;;;;;;;1.87;0.70;;;8.90;99.90;;;;;;5521295;25;20473;-75
2024/04/23 09:42:00;;;;;;;1.43;0.87;;;9.20;99.90;;;;;;5505848;26;20460;-76
2024/04/23 09:44:34;;;;;;;1.10;0.60;;;9.30;99.90;;;;;;5533452;25;20524;-75
2024/04/23 09:47:04;;;;;;;2.93;0.67;;;9.30;99.90;;;;;;5533121;26;20475;-74
2024/04/23 09:49:35;;;;;;;1.57;0.60;;;9.30;99.90;;;;;;5535143;25;20515;-74
2024/04/23 09:52:42;;;;;;;1.57;0.70;;;9.30;99.90;;;;;;5537142;25;20518;-74
2024/04/23 09:58:10;;;;;;;1.50;0.70;;;9.80;99.90;;;;;;5522014;25;20925;-74
2024/04/23 10:00:47;;;;;;;1.20;0.70;;;9.90;99.90;;;;;;5531241;26;20885;-74
2024/04/23 10:03:17;;;;;;;1.10;0.63;;;10.20;99.90;;;;;;5531089;26;20556;-74
2024/04/23 10:09:14;;;;;;;1.90;0.63;;;10.60;99.90;;;;;;5512569;25;20452;-74
2024/04/23 10:11:49;;;;;;;1.33;0.70;;;10.70;99.90;;;;;;5546059;25;20491;-74
2024/04/23 10:15:01;;;;;;;1.07;0.60;;;10.90;99.90;;;;;;5526418;26;20443;-75
2024/04/23 10:17:37;;;;;;;4.87;0.97;;;11.20;99.00;;;;;;5493583;26;20460;-74
2024/04/23 10:20:08;;;;;;;1.07;0.60;;;11.40;98.10;;;;;;5526756;25;20522;-75
2024/04/23 10:22:37;;;;;;;1.17;0.60;;;11.70;96.10;;;;;;5527458;26;20468;-74
2024/04/23 10:25:06;;;;;;;1.10;0.60;;;11.80;94.40;;;;;;5525412;26;20448;-74
2024/04/23 10:27:37;;;;;;;1.10;0.63;;;11.80;95.10;;;;;;5527486;26;20531;-75
2024/04/23 10:30:04;;;;;;;1.03;0.70;;;12.30;94.30;;;;;;5526034;26;20754;-74
2024/04/23 10:32:35;;;;;;;1.13;0.80;;;12.20;91.90;;;;;;5526514;26;20796;-74
2024/04/23 10:35:04;;;;;;;1.50;0.80;;;12.30;92.90;;;;;;5525251;26;20893;-74
2024/04/23 10:37:34;;;;;;;0.90;0.50;;;12.40;91.10;;;;;;5524239;26;20834;-75
2024/04/23 10:40:03;;;;;;;1.93;0.70;;;12.50;87.60;;;;;;5528756;26;20460;-74
2024/04/23 10:42:35;;;;;;;1.30;0.70;;;12.30;87.00;;;;;;5528025;26;20518;-74
2024/04/23 10:45:04;;;;;;;1.20;0.50;;;12.10;86.10;;;;;;5528677;25;20506;-74
2024/04/23 10:47:33;;;;;;;1.20;0.77;;;12.20;85.90;;;;;;5526979;25;20512;-74
2024/04/23 10:50:10;;;;;;;1.07;0.70;;;12.50;83.20;;;;;;5491438;26;21280;-74
2024/04/23 10:52:39;;;;;;;1.10;0.70;;;12.40;80.80;;;;;;5519761;26;20952;-73
2024/04/23 10:55:11;;;;;;;1.00;0.70;;;12.60;82.60;;;;;;5488820;26;20458;-74
2024/04/23 10:57:44;;;;;;;1.33;0.70;;;12.90;78.40;;;;;;5488305;26;20478;-72
2024/04/23 11:00:16;;;;;;;1.27;0.80;;;12.90;78.10;;;;;;5489728;26;20470;-73
2024/04/23 11:02:42;;;;;;;1.93;0.70;;;12.60;74.50;;;;;;5495094;26;20729;-72
2024/04/23 11:05:19;;;;;;;0.83;0.63;;;12.40;78.90;;;;;;5527315;26;20801;-73
2024/04/23 11:07:53;;;;;;;0.90;0.60;;;12.70;73.00;;;;;;5527656;26;20461;-73
2024/04/23 11:10:20;;;;;;;1.00;0.60;;;13.10;74.90;;;;;;5529592;26;20483;-73
2024/04/23 11:12:52;;;;;;;2.07;0.80;;;13.80;73.80;;;;;;5525596;26;20981;-73
2024/04/23 11:15:30;;;;;;;3.83;0.70;;;13.70;64.80;;;;;;5524699;26;20573;-72
2024/04/23 11:18:05;;;;;;;1.07;0.67;;;13.50;69.10;;;;;;5517051;26;20460;-72
2024/04/23 11:20:36;;;;;;;0.93;0.50;;;13.20;68.60;;;;;;5521176;26;20505;-72
2024/04/23 11:23:13;;;;;;;1.10;0.60;;;13.10;71.80;;;;;;5520995;26;20476;-72
2024/04/23 11:25:43;;;;;;;0.83;0.60;;;12.90;69.40;;;;;;5527626;26;20577;-73
2024/04/23 11:28:16;;;;;;;1.07;0.50;;;12.80;66.60;;;;;;5500639;26;20460;-74
2024/04/23 11:30:56;;;;;;;1.20;0.63;;;12.60;69.70;;;;;;5502840;26;20511;-72
2024/04/23 11:33:22;;;;;;;1.43;0.73;;;13.10;68.10;;;;;;5497613;26;20445;-73
2024/04/23 11:35:56;;;;;;;0.93;0.70;;;14.00;63.10;;;;;;5523941;26;20518;-72
2024/04/23 11:38:22;;;;;;;1.23;0.60;;;14.20;62.60;;;;;;5521544;26;20456;-73
2024/04/23 11:40:51;;;;;;;1.07;0.60;;;13.90;61.40;;;;;;5511438;26;20449;-72
2024/04/23 11:43:20;;;;;;;3.00;0.77;;;13.50;61.20;;;;;;5505378;26;20560;-72
2024/04/23 11:45:49;;;;;;;1.60;0.60;;;13.30;62.10;;;;;;5515143;26;20532;-74
2024/04/23 11:48:17;;;;;;;0.90;0.60;;;13.30;60.80;;;;;;5525577;26;20509;-72
2024/04/23 11:50:49;;;;;;;0.90;0.53;;;12.70;59.00;;;;;;5507975;25;20886;-72
2024/04/23 11:53:16;;;;;;;1.50;0.60;;;12.70;60.80;;;;;;5526637;26;20472;-72
2024/04/23 11:55:45;;;;;;;1.97;0.70;;;12.60;61.20;;;;;;5513310;26;20481;-71
2024/04/23 11:58:12;;;;;;;2.33;0.80;;;12.80;64.80;;;;;;5490518;26;20477;-72
2024/04/23 12:00:44;;;;;;;1.30;0.60;;;12.30;63.20;;;;;;5494437;26;20476;-71
2024/04/23 12:03:10;;;;;;;0.80;0.70;;;12.10;64.30;;;;;;5490852;26;20982;-71
2024/04/23 12:05:40;;;;;;;1.40;0.70;;;12.20;66.50;;;;;;5490167;26;20511;-71
2024/04/23 12:08:06;;;;;;;1.17;0.60;;;12.10;61.60;;;;;;5518452;26;20925;-71
2024/04/23 12:10:39;;;;;;;1.10;0.67;;;12.20;62.90;;;;;;5525350;26;20733;-73
2024/04/23 12:13:05;;;;;;;0.80;0.53;;;12.50;61.40;;;;;;5524411;26;20468;-72
2024/04/23 12:15:35;;;;;;;1.10;0.70;;;12.80;60.50;;;;;;5527232;26;20525;-72
2024/04/23 12:18:07;;;;;;;1.10;0.60;;;12.90;58.80;;;;;;5521874;26;20954;-74
2024/04/23 12:20:35;;;;;;;2.40;0.70;;;12.80;63.00;;;;;;5523074;26;20508;-72
2024/04/23 12:23:12;;;;;;;2.30;0.80;;;12.80;60.20;;;;;;5527563;26;20494;-72
2024/04/23 12:25:43;;;;;;;1.80;0.83;;;12.60;63.30;;;;;;5527435;26;20905;-72
2024/04/23 12:28:10;;;;;;;2.50;0.70;;;12.40;61.20;;;;;;5528238;26;20871;-72
2024/04/23 12:30:47;;;;;;;5.73;0.70;;;12.20;63.90;;;;;;5526252;26;20518;-71
2024/04/23 12:33:18;;;;;;;0.80;0.50;;;12.30;64.70;;;;;;5526976;26;21128;-72
2024/04/23 12:35:49;;;;;;;1.10;0.60;;;12.50;65.70;;;;;;5524385;26;20566;-71
2024/04/23 12:38:18;;;;;;;1.10;0.67;;;12.80;63.50;;;;;;5512990;26;21226;-72
2024/04/23 12:40:50;;;;;;;7.07;0.80;;;12.90;61.30;;;;;;5524115;26;20480;-71
2024/04/23 12:43:16;;;;;;;1.00;0.70;;;12.70;61.50;;;;;;5524177;26;20517;-72
2024/04/23 12:45:46;;;;;;;1.10;0.60;;;12.40;61.50;;;;;;5525637;26;20472;-72
2024/04/23 12:48:19;;;;;;;1.50;0.60;;;12.00;62.30;;;;;;5526370;26;20727;-72
2024/04/23 12:50:48;;;;;;;1.57;0.60;;;12.00;64.90;;;;;;5524822;26;20441;-72
2024/04/23 12:53:14;;;;;;;1.30;0.60;;;12.00;64.30;;;;;;5509998;26;20724;-72
2024/04/23 12:55:46;;;;;;;0.90;0.50;;;12.30;64.70;;;;;;5524215;26;20577;-71
2024/04/23 12:58:12;;;;;;;1.00;0.70;;;12.40;64.50;;;;;;5514369;26;20523;-72
2024/04/23 13:00:41;;;;;;;1.53;1.20;;;12.60;62.20;;;;;;5524734;26;20744;-71
2024/04/23 13:03:07;;;;;;;1.30;0.70;;;12.90;62.10;;;;;;5519015;26;20517;-72
2024/04/23 13:05:45;;;;;;;1.07;0.70;;;12.60;62.20;;;;;;5526042;26;20562;-72
2024/04/23 13:08:11;;;;;;;1.07;0.60;;;12.80;62.50;;;;;;5524360;26;20917;-72
2024/04/23 13:10:41;;;;;;;0.90;0.60;;;13.10;60.70;;;;;;5526224;26;20508;-72
2024/04/23 13:13:08;;;;;;;1.40;0.67;;;13.00;60.50;;;;;;5512375;26;20911;-72
2024/04/23 13:15:37;;;;;;;1.07;0.60;;;12.80;61.60;;;;;;5521352;26;22121;-72
2024/04/23 13:18:04;;;;;;;1.70;0.87;;;12.80;61.60;;;;;;5508198;26;20874;-72
2024/04/23 13:20:45;;;;;;;2.03;0.63;;;13.00;61.90;;;;;;5486409;26;20552;-73
2024/04/23 13:23:14;;;;;;;2.30;0.60;;;13.10;60.10;;;;;;5502910;26;20547;-74